»·PEaware :: SKW1187 KPHX-KSNA

SKW1187 :: KPHX-KSNA

FLIGHT INFORMATION

Flight Status: Arrived
Operator:
SkyWest Airlines
More flights by this operator :: More flights under this callsign
Pilot: Anonymous 12254 (12254)
Aircraft: CANADAIR CL-600 CRJ-200
(CRJ2)
More flights by this aircraft type
Origin: KPHX Phoenix Sky Harbor Intl
United States
Destination: KSNA John Wayne-Orange Co
United States
More flights between these airports :: More routes between these airports
Route: +KEENS2 HRRBR EMLLD DSNEE4
File this flight plan on PilotEdge
Remarks:
Altitude:
(Current/Filed)
30,000ft
Speed:
(Current/Filed)
440kts
Departed: 06-Jun-19 11:51 AM
Arrived: 06-Jun-19 01:01 PM
Distance/Time
Traveled:
293nm/1:10
Distance/Time
To Go:
Arrived

Flight Plot

Page will automatically refresh every two minutes.

Flight plan parsing failed; only flown route is shown


Map Options




Map Legend


Flown Route
Filed Route
Departure Airport
Arrival Airport
Navaid (VOR, NDB)
Fix

Horizontal Profiles

Position Reports

Time Latitude Longitude Heading Altitude Ground
Speed
06-Jun-19 11:19 33.433667 -112.012362 184 1123ft 0kts
06-Jun-19 11:20 33.433667 -112.012362 184 1123ft 0kts
06-Jun-19 11:20 33.433667 -112.012362 184 1123ft 0kts
06-Jun-19 11:21 33.433667 -112.012362 184 1123ft 0kts
06-Jun-19 11:23 33.433667 -112.012362 184 1123ft 0kts
06-Jun-19 11:23 33.433667 -112.012362 184 1123ft 0kts
06-Jun-19 11:24 33.433667 -112.012362 184 1123ft 0kts
06-Jun-19 11:26 33.433667 -112.012362 184 1123ft 0kts
06-Jun-19 11:26 33.433667 -112.012362 184 1123ft 0kts
06-Jun-19 11:27 33.433667 -112.012362 184 1123ft 0kts
06-Jun-19 11:28 33.433667 -112.012362 184 1123ft 0kts
06-Jun-19 11:29 33.433667 -112.012362 184 1123ft 0kts
06-Jun-19 11:30 33.433667 -112.012362 184 1123ft 0kts
06-Jun-19 11:31 33.433667 -112.012362 184 1123ft 0kts
06-Jun-19 11:32 33.433667 -112.012362 184 1123ft 0kts
06-Jun-19 11:33 33.433667 -112.012362 184 1123ft 0kts
06-Jun-19 11:34 33.433667 -112.012362 184 1123ft 0kts
06-Jun-19 11:35 33.433667 -112.012362 184 1123ft 0kts
06-Jun-19 11:36 33.433667 -112.012362 184 1123ft 0kts
06-Jun-19 11:37 33.433667 -112.012362 184 1123ft 0kts
06-Jun-19 11:38 33.433667 -112.012362 184 1123ft 0kts
06-Jun-19 11:39 33.433667 -112.012362 184 1123ft 0kts
06-Jun-19 11:40 33.433667 -112.012362 184 1123ft 0kts
06-Jun-19 11:41 33.433667 -112.012362 184 1122ft 0kts
06-Jun-19 11:42 33.433667 -112.012362 184 1122ft 0kts
06-Jun-19 11:43 33.433667 -112.012362 184 1122ft 0kts
06-Jun-19 11:44 33.433454 -112.012375 182 1122ft 3kts
06-Jun-19 11:45 33.432880 -112.014569 270 1121ft 12kts
06-Jun-19 11:46 33.432881 -112.020321 269 1114ft 20kts
06-Jun-19 11:47 33.432749 -112.026692 225 1111ft 10kts
06-Jun-19 11:48 33.432103 -112.026969 185 1111ft 0kts
06-Jun-19 11:49 33.431992 -112.026978 180 1111ft 2kts
06-Jun-19 11:50 33.431057 -112.010683 89 1131ft 162kts
06-Jun-19 11:51 33.432372 -111.950757 87 2587ft 190kts
06-Jun-19 11:52 33.432486 -111.880870 110 4682ft 239kts
06-Jun-19 11:53 33.374858 -111.854025 210 6797ft 242kts
06-Jun-19 11:54 33.365700 -111.917016 288 8841ft 216kts
06-Jun-19 11:55 33.379982 -111.990705 279 10900ft 240kts
06-Jun-19 11:56 33.390385 -112.073504 278 13243ft 260kts
06-Jun-19 11:57 33.400600 -112.161529 277 15771ft 272kts
06-Jun-19 11:58 33.410976 -112.252291 277 18276ft 277kts
06-Jun-19 11:59 33.421305 -112.343323 277 20758ft 273kts
06-Jun-19 12:00 33.432540 -112.443125 277 21029ft 320kts
06-Jun-19 12:01 33.444417 -112.549345 277 21670ft 311kts
06-Jun-19 12:02 33.450610 -112.648117 271 23316ft 290kts
06-Jun-19 12:03 33.452023 -112.742236 270 25284ft 271kts
06-Jun-19 12:04 33.458275 -112.826524 279 27198ft 236kts
06-Jun-19 12:05 33.472607 -112.905408 279 28919ft 252kts
06-Jun-19 12:06 33.488706 -112.992173 279 30068ft 303kts
06-Jun-19 12:07 33.509332 -113.103195 279 30024ft 359kts
06-Jun-19 12:08 33.531586 -113.223609 280 30022ft 378kts
06-Jun-19 12:09 33.554809 -113.350028 280 30020ft 397kts
06-Jun-19 12:10 33.578900 -113.481981 280 30020ft 413kts
06-Jun-19 12:11 33.604419 -113.619404 280 30001ft 429kts
06-Jun-19 12:12 33.630879 -113.761969 280 29971ft 444kts
06-Jun-19 12:13 33.665425 -113.904454 291 29969ft 446kts
06-Jun-19 12:14 33.716944 -114.039093 292 29963ft 442kts
06-Jun-19 12:15 33.760821 -114.175254 276 29978ft 431kts
06-Jun-19 12:16 33.777842 -114.315388 276 29960ft 415kts
06-Jun-19 12:17 33.793550 -114.450705 275 29960ft 401kts
06-Jun-19 12:18 33.808617 -114.581869 275 29960ft 389kts
06-Jun-19 12:19 33.823101 -114.709142 275 29963ft 378kts
06-Jun-19 12:20 33.837042 -114.832790 275 29963ft 369kts
06-Jun-19 12:21 33.850603 -114.954015 275 29962ft 360kts
06-Jun-19 12:22 33.863732 -115.072075 274 29962ft 352kts
06-Jun-19 12:23 33.876490 -115.187908 274 29962ft 345kts
06-Jun-19 12:24 33.888875 -115.301323 274 29953ft 339kts
06-Jun-19 12:25 33.900996 -115.413267 274 29939ft 334kts
06-Jun-19 12:26 33.912811 -115.523331 274 29934ft 328kts
06-Jun-19 12:27 33.924334 -115.631581 274 29933ft 322kts
06-Jun-19 12:28 33.932748 -115.741974 271 28503ft 339kts
06-Jun-19 12:29 33.940941 -115.857308 271 27143ft 349kts
06-Jun-19 12:30 33.949195 -115.975377 271 25814ft 357kts
06-Jun-19 12:31 33.957574 -116.096957 272 23986ft 366kts
06-Jun-19 12:32 33.962707 -116.212517 259 23941ft 322kts
06-Jun-19 12:33 33.950297 -116.319466 258 22793ft 322kts
06-Jun-19 12:34 33.937148 -116.426453 258 21701ft 321kts
06-Jun-19 12:35 33.924056 -116.532006 258 20943ft 309kts
06-Jun-19 12:36 33.911113 -116.632912 258 20137ft 303kts
06-Jun-19 12:37 33.898054 -116.733789 257 19175ft 304kts
06-Jun-19 12:38 33.886348 -116.836927 259 17532ft 325kts
06-Jun-19 12:39 33.874021 -116.949245 259 15074ft 350kts
06-Jun-19 12:40 33.861058 -117.066420 260 12638ft 350kts
06-Jun-19 12:41 33.848409 -117.179667 260 10632ft 331kts
06-Jun-19 12:42 33.837025 -117.280932 262 8564ft 275kts
06-Jun-19 12:43 33.828124 -117.359820 262 7988ft 202kts
06-Jun-19 12:44 33.820791 -117.424362 262 8009ft 195kts
06-Jun-19 12:45 33.804402 -117.489910 250 8006ft 214kts
06-Jun-19 12:46 33.802295 -117.562740 283 7687ft 239kts
06-Jun-19 12:47 33.804578 -117.649339 271 6437ft 271kts
06-Jun-19 12:48 33.833163 -117.733670 301 5172ft 286kts
06-Jun-19 12:49 33.863520 -117.821341 257 4028ft 291kts
06-Jun-19 12:50 33.805581 -117.864061 178 4005ft 235kts
06-Jun-19 12:51 33.740580 -117.836212 190 2872ft 261kts
06-Jun-19 12:52 33.669520 -117.872770 207 244ft 259kts
06-Jun-19 12:53 33.621821 -117.907457 240 1276ft 157kts
06-Jun-19 12:54 33.654079 -117.930976 6 1424ft 205kts
06-Jun-19 12:55 33.708279 -117.900001 34 2055ft 209kts
06-Jun-19 12:56 33.752447 -117.859970 38 1886ft 189kts
06-Jun-19 12:57 33.774760 -117.815774 151 1711ft 160kts
06-Jun-19 12:58 33.736087 -117.830482 209 1448ft 150kts
06-Jun-19 12:59 33.698313 -117.854247 208 485ft 152kts
06-Jun-19 13:00 33.670453 -117.872213 205 61ft 32kts
06-Jun-19 13:01 33.669173 -117.871599 126 61ft 3kts
06-Jun-19 13:02 33.671534 -117.868456 39 61ft 21kts
06-Jun-19 13:03 33.675541 -117.865558 27 61ft 12kts
06-Jun-19 13:04 33.675735 -117.864653 114 61ft 0kts
06-Jun-19 13:05 33.675714 -117.864611 119 61ft 0kts
06-Jun-19 13:06 33.675714 -117.864611 119 61ft 0kts

Navigation Log

Ident Type
Flight plan parsing failed, navigation log unavailable